KIWA

Phoenix-Mesa Gateway Airport

Phoenix, Arizona, USA
METAR KIWA 201447Z 00000KT 30SM SCT200 07/M09 A3004
Observed Flight Rules
Feb-20 @ 14:47 UTC (2 hours ago) Visual Flight Rules
Wind Visibility Clouds
Calm 30 miles
  • Scattered at 20,000' AGL
Temperatures Readings
Current 7°C / 45°F
Dewpoint -9°C / 16°F
Humidity 31%
Altimeter 30.04" Hg
Pressure 1017 hPa
Elevation 412
METAR KIWA 201447Z 00000KT 30SM SCT200 07/M09 A3004
Observed Flight Rules
Feb-20 @ 14:47 UTC
(2 hours ago)
VFR
Wind Visibility
Calm 30 miles
Clouds
  • Scattered at 20,000' AGL
Temperature Dewpoint
7°C / 45°F -9°C / 16°F
Humidity Altimeter Pressure
31% 30.04" Hg 1017 hPa